KOVE/OVE METAR and TAF weather

Enter ICAO airport designator
Station Type Date Time Source
KOVE METAR 2021/08/05 04:53 UTC NOAA

KOVE 050453Z AUTO 15013KT 10SM CLR 29/09 A2983 RMK AO2 SLP102 T02940094


Station Type Date Time Source
KOVE Decoded METAR 2021/08/05 04:53 UTC NOAA

OROVILLE MUNICIPAL AIRPORT, CA, United States (KOVE) 39-30N 121-37W 58M
Aug 05, 2021 - 12:53 AM EDT / 2021.08.05 0453 UTC
Wind: from the SSE (150 degrees) at 15 MPH (13 KT):0
Visibility: 10 mile(s):0
Sky conditions: clear
Temperature: 84.9 F (29.4 C)
Dew Point: 48.9 F (9.4 C)
Relative Humidity: 28%
Pressure (altimeter): 29.83 in. Hg (1010 hPa)
ob: KOVE 050453Z AUTO 15013KT 10SM CLR 29/09 A2983 RMK AO2 SLP102 T02940094
cycle: 5

Station Type Date Time Source
KOVE TAF UTC NOAA

Error!

Example: see airport list